sensor_id;sensor_type;location;lat;lon;timestamp;temperature;humidity
13251;DHT22;6692;50.710;7.180;2022-10-31T00:01:41;13.20;99.90
13251;DHT22;6692;50.710;7.180;2022-10-31T00:03:42;13.20;99.90
13251;DHT22;6692;50.710;7.180;2022-10-31T00:05:44;13.20;99.90
13251;DHT22;6692;50.710;7.180;2022-10-31T00:07:44;13.30;99.90
13251;DHT22;6692;50.710;7.180;2022-10-31T00:09:46;13.30;99.90
13251;DHT22;6692;50.710;7.180;2022-10-31T00:11:46;13.20;99.90
13251;DHT22;6692;50.710;7.180;2022-10-31T00:13:47;13.20;99.90
13251;DHT22;6692;50.710;7.180;2022-10-31T00:15:48;13.20;99.90
13251;DHT22;6692;50.710;7.180;2022-10-31T00:17:48;13.30;99.90
13251;DHT22;6692;50.710;7.180;2022-10-31T00:19:49;13.30;99.90
13251;DHT22;6692;50.710;7.180;2022-10-31T00:21:51;13.30;99.90
13251;DHT22;6692;50.710;7.180;2022-10-31T00:23:50;13.20;99.90
13251;DHT22;6692;50.710;7.180;2022-10-31T00:25:52;13.20;99.90
13251;DHT22;6692;50.710;7.180;2022-10-31T00:27:52;13.20;99.90
13251;DHT22;6692;50.710;7.180;2022-10-31T00:29:54;13.20;99.90
13251;DHT22;6692;50.710;7.180;2022-10-31T00:31:55;13.30;99.90
13251;DHT22;6692;50.710;7.180;2022-10-31T00:33:56;13.20;99.90
13251;DHT22;6692;50.710;7.180;2022-10-31T00:35:56;13.20;99.90
13251;DHT22;6692;50.710;7.180;2022-10-31T00:37:57;13.20;99.90
13251;DHT22;6692;50.710;7.180;2022-10-31T00:39:58;13.20;99.90
13251;DHT22;6692;50.710;7.180;2022-10-31T00:42:00;13.20;99.90
13251;DHT22;6692;50.710;7.180;2022-10-31T00:44:00;13.20;99.90
13251;DHT22;6692;50.710;7.180;2022-10-31T00:46:01;13.20;99.90
13251;DHT22;6692;50.710;7.180;2022-10-31T00:48:02;13.20;99.90
13251;DHT22;6692;50.710;7.180;2022-10-31T00:50:04;13.20;99.90
13251;DHT22;6692;50.710;7.180;2022-10-31T00:52:04;13.20;99.90
13251;DHT22;6692;50.710;7.180;2022-10-31T00:54:05;13.20;99.90
13251;DHT22;6692;50.710;7.180;2022-10-31T00:56:06;13.20;99.90
13251;DHT22;6692;50.710;7.180;2022-10-31T00:58:07;13.20;99.90
13251;DHT22;6692;50.710;7.180;2022-10-31T01:00:09;13.20;99.90
13251;DHT22;6692;50.710;7.180;2022-10-31T01:02:11;13.20;99.90
13251;DHT22;6692;50.710;7.180;2022-10-31T01:04:12;13.20;99.90
13251;DHT22;6692;50.710;7.180;2022-10-31T01:06:13;13.20;99.90
13251;DHT22;6692;50.710;7.180;2022-10-31T01:08:14;13.20;99.90
13251;DHT22;6692;50.710;7.180;2022-10-31T01:10:16;13.20;99.90
13251;DHT22;6692;50.710;7.180;2022-10-31T01:12:17;13.20;99.90
13251;DHT22;6692;50.710;7.180;2022-10-31T01:14:18;13.20;99.90
13251;DHT22;6692;50.710;7.180;2022-10-31T01:16:21;13.10;99.90
13251;DHT22;6692;50.710;7.180;2022-10-31T01:18:21;13.10;99.90
13251;DHT22;6692;50.710;7.180;2022-10-31T01:20:21;13.10;99.90
13251;DHT22;6692;50.710;7.180;2022-10-31T01:22:22;13.10;99.90
13251;DHT22;6692;50.710;7.180;2022-10-31T01:24:23;13.10;99.90
13251;DHT22;6692;50.710;7.180;2022-10-31T01:26:26;13.10;99.90
13251;DHT22;6692;50.710;7.180;2022-10-31T01:28:25;13.10;99.90
13251;DHT22;6692;50.710;7.180;2022-10-31T01:30:26;13.10;99.90
13251;DHT22;6692;50.710;7.180;2022-10-31T01:32:27;13.10;99.90
13251;DHT22;6692;50.710;7.180;2022-10-31T01:34:28;13.10;99.90
13251;DHT22;6692;50.710;7.180;2022-10-31T01:36:31;13.10;99.90
13251;DHT22;6692;50.710;7.180;2022-10-31T01:38:29;13.10;99.90
13251;DHT22;6692;50.710;7.180;2022-10-31T01:40:30;13.10;99.90
13251;DHT22;6692;50.710;7.180;2022-10-31T01:42:31;13.10;99.90
13251;DHT22;6692;50.710;7.180;2022-10-31T01:44:52;13.10;99.90
13251;DHT22;6692;50.710;7.180;2022-10-31T01:46:54;13.10;99.90
13251;DHT22;6692;50.710;7.180;2022-10-31T01:48:54;13.10;99.90
13251;DHT22;6692;50.710;7.180;2022-10-31T01:50:55;13.10;99.90
13251;DHT22;6692;50.710;7.180;2022-10-31T01:52:55;13.10;99.90
13251;DHT22;6692;50.710;7.180;2022-10-31T01:55:02;13.10;99.90
13251;DHT22;6692;50.710;7.180;2022-10-31T01:57:02;13.10;99.90
13251;DHT22;6692;50.710;7.180;2022-10-31T01:59:02;13.10;99.90
13251;DHT22;6692;50.710;7.180;2022-10-31T02:01:04;13.10;99.90
13251;DHT22;6692;50.710;7.180;2022-10-31T02:03:04;13.10;99.90
13251;DHT22;6692;50.710;7.180;2022-10-31T02:05:06;13.10;99.90
13251;DHT22;6692;50.710;7.180;2022-10-31T02:07:09;13.10;99.90
13251;DHT22;6692;50.710;7.180;2022-10-31T02:09:08;13.10;99.90
13251;DHT22;6692;50.710;7.180;2022-10-31T02:11:08;13.10;99.90
13251;DHT22;6692;50.710;7.180;2022-10-31T02:13:10;13.10;99.90
13251;DHT22;6692;50.710;7.180;2022-10-31T02:15:11;13.10;99.90
13251;DHT22;6692;50.710;7.180;2022-10-31T02:17:13;13.10;99.90
13251;DHT22;6692;50.710;7.180;2022-10-31T02:19:14;13.10;99.90
13251;DHT22;6692;50.710;7.180;2022-10-31T02:21:38;13.10;99.90
13251;DHT22;6692;50.710;7.180;2022-10-31T02:24:08;13.10;99.90
13251;DHT22;6692;50.710;7.180;2022-10-31T02:26:16;13.20;99.90
13251;DHT22;6692;50.710;7.180;2022-10-31T02:28:41;13.10;99.90
13251;DHT22;6692;50.710;7.180;2022-10-31T02:30:40;13.10;99.90
13251;DHT22;6692;50.710;7.180;2022-10-31T02:33:00;13.10;99.90
13251;DHT22;6692;50.710;7.180;2022-10-31T02:35:08;13.10;99.90
13251;DHT22;6692;50.710;7.180;2022-10-31T02:38:14;13.10;99.90
13251;DHT22;6692;50.710;7.180;2022-10-31T02:39:25;13.00;99.90
13251;DHT22;6692;50.710;7.180;2022-10-31T02:41:30;13.10;99.90
13251;DHT22;6692;50.710;7.180;2022-10-31T02:45:55;13.00;99.90
13251;DHT22;6692;50.710;7.180;2022-10-31T02:47:54;13.00;99.90
13251;DHT22;6692;50.710;7.180;2022-10-31T02:50:00;13.00;99.90
13251;DHT22;6692;50.710;7.180;2022-10-31T02:52:00;13.00;99.90
13251;DHT22;6692;50.710;7.180;2022-10-31T02:54:00;13.00;99.90
13251;DHT22;6692;50.710;7.180;2022-10-31T02:56:03;13.00;99.90
13251;DHT22;6692;50.710;7.180;2022-10-31T02:58:07;13.00;99.90
13251;DHT22;6692;50.710;7.180;2022-10-31T03:00:08;12.90;99.90
13251;DHT22;6692;50.710;7.180;2022-10-31T03:02:12;12.90;99.90
13251;DHT22;6692;50.710;7.180;2022-10-31T03:04:16;12.90;99.90
13251;DHT22;6692;50.710;7.180;2022-10-31T03:06:41;12.90;99.90
13251;DHT22;6692;50.710;7.180;2022-10-31T03:08:47;12.90;99.90
13251;DHT22;6692;50.710;7.180;2022-10-31T03:10:48;13.00;99.90
13251;DHT22;6692;50.710;7.180;2022-10-31T03:12:49;12.90;99.90
13251;DHT22;6692;50.710;7.180;2022-10-31T03:14:51;13.00;99.90
13251;DHT22;6692;50.710;7.180;2022-10-31T03:16:50;13.00;99.90
13251;DHT22;6692;50.710;7.180;2022-10-31T03:18:53;13.00;99.90
13251;DHT22;6692;50.710;7.180;2022-10-31T03:20:55;13.00;99.90
13251;DHT22;6692;50.710;7.180;2022-10-31T03:22:54;13.00;99.90
13251;DHT22;6692;50.710;7.180;2022-10-31T03:24:55;13.00;99.90
13251;DHT22;6692;50.710;7.180;2022-10-31T03:26:56;13.00;99.90
13251;DHT22;6692;50.710;7.180;2022-10-31T03:29:00;13.00;99.90
13251;DHT22;6692;50.710;7.180;2022-10-31T03:30:59;13.00;99.90
13251;DHT22;6692;50.710;7.180;2022-10-31T03:33:00;13.00;99.90
13251;DHT22;6692;50.710;7.180;2022-10-31T03:35:02;13.00;99.90
13251;DHT22;6692;50.710;7.180;2022-10-31T03:37:03;13.00;99.90
13251;DHT22;6692;50.710;7.180;2022-10-31T03:39:04;13.00;99.90
13251;DHT22;6692;50.710;7.180;2022-10-31T03:41:04;12.90;99.90
13251;DHT22;6692;50.710;7.180;2022-10-31T03:43:06;12.90;99.90
13251;DHT22;6692;50.710;7.180;2022-10-31T03:45:10;12.80;99.90
13251;DHT22;6692;50.710;7.180;2022-10-31T03:47:09;12.90;99.90
13251;DHT22;6692;50.710;7.180;2022-10-31T03:49:10;12.80;99.90
13251;DHT22;6692;50.710;7.180;2022-10-31T03:51:20;12.80;99.90
13251;DHT22;6692;50.710;7.180;2022-10-31T03:53:23;12.80;99.90
13251;DHT22;6692;50.710;7.180;2022-10-31T03:55:26;12.80;99.90
13251;DHT22;6692;50.710;7.180;2022-10-31T03:57:27;12.70;99.90
13251;DHT22;6692;50.710;7.180;2022-10-31T03:59:27;12.70;99.90
13251;DHT22;6692;50.710;7.180;2022-10-31T04:01:27;12.70;99.90
13251;DHT22;6692;50.710;7.180;2022-10-31T04:03:30;12.70;99.90
13251;DHT22;6692;50.710;7.180;2022-10-31T04:05:29;12.70;99.90
13251;DHT22;6692;50.710;7.180;2022-10-31T04:07:30;12.70;99.90
13251;DHT22;6692;50.710;7.180;2022-10-31T04:09:31;12.70;99.90
13251;DHT22;6692;50.710;7.180;2022-10-31T04:11:34;12.70;99.90
13251;DHT22;6692;50.710;7.180;2022-10-31T04:13:33;12.60;99.90
13251;DHT22;6692;50.710;7.180;2022-10-31T04:15:34;12.60;99.90
13251;DHT22;6692;50.710;7.180;2022-10-31T04:17:36;12.60;99.90
13251;DHT22;6692;50.710;7.180;2022-10-31T04:19:35;12.60;99.90
13251;DHT22;6692;50.710;7.180;2022-10-31T04:21:36;12.60;99.90
13251;DHT22;6692;50.710;7.180;2022-10-31T04:23:36;12.60;99.90
13251;DHT22;6692;50.710;7.180;2022-10-31T04:25:37;12.60;99.90
13251;DHT22;6692;50.710;7.180;2022-10-31T04:27:38;12.60;99.90
13251;DHT22;6692;50.710;7.180;2022-10-31T04:29:38;12.50;99.90
13251;DHT22;6692;50.710;7.180;2022-10-31T04:31:39;12.50;99.90
13251;DHT22;6692;50.710;7.180;2022-10-31T04:33:40;12.50;99.90
13251;DHT22;6692;50.710;7.180;2022-10-31T04:35:41;12.50;99.90
13251;DHT22;6692;50.710;7.180;2022-10-31T04:37:42;12.40;99.90
13251;DHT22;6692;50.710;7.180;2022-10-31T04:39:43;12.40;99.90
13251;DHT22;6692;50.710;7.180;2022-10-31T04:41:44;12.40;99.90
13251;DHT22;6692;50.710;7.180;2022-10-31T04:43:44;12.40;99.90
13251;DHT22;6692;50.710;7.180;2022-10-31T04:45:45;12.40;99.90
13251;DHT22;6692;50.710;7.180;2022-10-31T04:47:46;12.40;99.90
13251;DHT22;6692;50.710;7.180;2022-10-31T04:49:47;12.40;99.90
13251;DHT22;6692;50.710;7.180;2022-10-31T04:51:48;12.40;99.90
13251;DHT22;6692;50.710;7.180;2022-10-31T04:53:49;12.30;99.90
13251;DHT22;6692;50.710;7.180;2022-10-31T04:55:51;12.30;99.90
13251;DHT22;6692;50.710;7.180;2022-10-31T04:57:51;12.30;99.90
13251;DHT22;6692;50.710;7.180;2022-10-31T04:59:52;12.30;99.90
13251;DHT22;6692;50.710;7.180;2022-10-31T05:01:52;12.30;99.90
13251;DHT22;6692;50.710;7.180;2022-10-31T05:03:53;12.30;99.90
13251;DHT22;6692;50.710;7.180;2022-10-31T05:05:54;12.30;99.90
13251;DHT22;6692;50.710;7.180;2022-10-31T05:07:55;12.30;99.90
13251;DHT22;6692;50.710;7.180;2022-10-31T05:09:56;12.30;99.90
13251;DHT22;6692;50.710;7.180;2022-10-31T05:11:56;12.30;99.90
13251;DHT22;6692;50.710;7.180;2022-10-31T05:13:57;12.30;99.90
13251;DHT22;6692;50.710;7.180;2022-10-31T05:15:58;12.30;99.90
13251;DHT22;6692;50.710;7.180;2022-10-31T05:17:59;12.30;99.90
13251;DHT22;6692;50.710;7.180;2022-10-31T05:20:00;12.40;99.90
13251;DHT22;6692;50.710;7.180;2022-10-31T05:22:00;12.40;99.90
13251;DHT22;6692;50.710;7.180;2022-10-31T05:24:01;12.30;99.90
13251;DHT22;6692;50.710;7.180;2022-10-31T05:26:02;12.30;99.90
13251;DHT22;6692;50.710;7.180;2022-10-31T05:28:03;12.30;99.90
13251;DHT22;6692;50.710;7.180;2022-10-31T05:30:05;12.30;99.90
13251;DHT22;6692;50.710;7.180;2022-10-31T05:32:06;12.20;99.90
13251;DHT22;6692;50.710;7.180;2022-10-31T05:34:07;12.30;99.90
13251;DHT22;6692;50.710;7.180;2022-10-31T05:36:07;12.20;99.90
13251;DHT22;6692;50.710;7.180;2022-10-31T05:38:08;12.20;99.90
13251;DHT22;6692;50.710;7.180;2022-10-31T05:40:10;12.20;99.90
13251;DHT22;6692;50.710;7.180;2022-10-31T05:42:10;12.20;99.90
13251;DHT22;6692;50.710;7.180;2022-10-31T05:44:10;12.20;99.90
13251;DHT22;6692;50.710;7.180;2022-10-31T05:46:11;12.20;99.90
13251;DHT22;6692;50.710;7.180;2022-10-31T05:48:12;12.10;99.90
13251;DHT22;6692;50.710;7.180;2022-10-31T05:50:13;12.10;99.90
13251;DHT22;6692;50.710;7.180;2022-10-31T05:52:14;12.10;99.90
13251;DHT22;6692;50.710;7.180;2022-10-31T05:54:14;12.20;99.90
13251;DHT22;6692;50.710;7.180;2022-10-31T05:56:15;12.20;99.90
13251;DHT22;6692;50.710;7.180;2022-10-31T05:58:16;12.30;99.90
13251;DHT22;6692;50.710;7.180;2022-10-31T06:00:16;12.20;99.90
13251;DHT22;6692;50.710;7.180;2022-10-31T06:02:19;12.30;99.90
13251;DHT22;6692;50.710;7.180;2022-10-31T06:04:19;12.20;99.90
13251;DHT22;6692;50.710;7.180;2022-10-31T06:06:20;12.30;99.90
13251;DHT22;6692;50.710;7.180;2022-10-31T06:08:20;12.30;99.90
13251;DHT22;6692;50.710;7.180;2022-10-31T06:10:21;12.30;99.90
13251;DHT22;6692;50.710;7.180;2022-10-31T06:12:22;12.30;99.90
13251;DHT22;6692;50.710;7.180;2022-10-31T06:14:22;12.20;99.90
13251;DHT22;6692;50.710;7.180;2022-10-31T06:16:24;12.20;99.90
13251;DHT22;6692;50.710;7.180;2022-10-31T06:18:25;12.20;99.90
13251;DHT22;6692;50.710;7.180;2022-10-31T06:20:26;12.20;99.90
13251;DHT22;6692;50.710;7.180;2022-10-31T06:22:27;12.20;99.90
13251;DHT22;6692;50.710;7.180;2022-10-31T06:24:28;12.20;99.90
13251;DHT22;6692;50.710;7.180;2022-10-31T06:26:29;12.20;99.90
13251;DHT22;6692;50.710;7.180;2022-10-31T06:28:30;12.20;99.90
13251;DHT22;6692;50.710;7.180;2022-10-31T06:30:31;12.20;99.90
13251;DHT22;6692;50.710;7.180;2022-10-31T06:32:32;12.20;99.90
13251;DHT22;6692;50.710;7.180;2022-10-31T06:34:32;12.30;99.90
13251;DHT22;6692;50.710;7.180;2022-10-31T06:36:34;12.30;99.90
13251;DHT22;6692;50.710;7.180;2022-10-31T06:38:34;12.30;99.90
13251;DHT22;6692;50.710;7.180;2022-10-31T06:40:35;12.30;99.90
13251;DHT22;6692;50.710;7.180;2022-10-31T06:42:36;12.30;99.90
13251;DHT22;6692;50.710;7.180;2022-10-31T06:44:36;12.40;99.90
13251;DHT22;6692;50.710;7.180;2022-10-31T06:46:37;12.50;99.90
13251;DHT22;6692;50.710;7.180;2022-10-31T06:48:40;12.60;99.90
13251;DHT22;6692;50.710;7.180;2022-10-31T06:50:39;12.60;99.90
13251;DHT22;6692;50.710;7.180;2022-10-31T06:52:40;12.80;99.90
13251;DHT22;6692;50.710;7.180;2022-10-31T06:54:42;12.80;99.90
13251;DHT22;6692;50.710;7.180;2022-10-31T06:56:45;12.90;99.90
13251;DHT22;6692;50.710;7.180;2022-10-31T06:58:44;13.00;99.90
13251;DHT22;6692;50.710;7.180;2022-10-31T07:00:46;13.00;99.90
13251;DHT22;6692;50.710;7.180;2022-10-31T07:02:53;13.00;99.90
13251;DHT22;6692;50.710;7.180;2022-10-31T07:04:53;13.10;99.90
13251;DHT22;6692;50.710;7.180;2022-10-31T07:06:54;13.20;99.90
13251;DHT22;6692;50.710;7.180;2022-10-31T07:08:54;13.20;99.90
13251;DHT22;6692;50.710;7.180;2022-10-31T07:10:56;13.30;99.90
13251;DHT22;6692;50.710;7.180;2022-10-31T07:12:57;13.30;99.90
13251;DHT22;6692;50.710;7.180;2022-10-31T07:14:58;13.30;99.90
13251;DHT22;6692;50.710;7.180;2022-10-31T07:16:59;13.30;99.90
13251;DHT22;6692;50.710;7.180;2022-10-31T07:19:00;13.30;99.90
13251;DHT22;6692;50.710;7.180;2022-10-31T07:21:01;13.40;99.90
13251;DHT22;6692;50.710;7.180;2022-10-31T07:23:03;13.40;99.90
13251;DHT22;6692;50.710;7.180;2022-10-31T07:25:04;13.40;99.90
13251;DHT22;6692;50.710;7.180;2022-10-31T07:27:05;13.50;99.90
13251;DHT22;6692;50.710;7.180;2022-10-31T07:29:06;13.40;99.90
13251;DHT22;6692;50.710;7.180;2022-10-31T07:31:07;13.40;99.90
13251;DHT22;6692;50.710;7.180;2022-10-31T07:33:08;13.40;99.90
13251;DHT22;6692;50.710;7.180;2022-10-31T07:35:10;13.50;99.90
13251;DHT22;6692;50.710;7.180;2022-10-31T07:37:10;13.50;99.90
13251;DHT22;6692;50.710;7.180;2022-10-31T07:39:10;13.60;99.90
13251;DHT22;6692;50.710;7.180;2022-10-31T07:41:11;13.70;99.90
13251;DHT22;6692;50.710;7.180;2022-10-31T07:43:12;13.70;99.90
13251;DHT22;6692;50.710;7.180;2022-10-31T07:45:15;13.80;99.90
13251;DHT22;6692;50.710;7.180;2022-10-31T07:47:15;13.90;99.90
13251;DHT22;6692;50.710;7.180;2022-10-31T07:49:15;13.90;99.90
13251;DHT22;6692;50.710;7.180;2022-10-31T07:51:16;13.90;99.90
13251;DHT22;6692;50.710;7.180;2022-10-31T07:53:17;13.90;99.90
13251;DHT22;6692;50.710;7.180;2022-10-31T07:55:17;13.90;99.90
13251;DHT22;6692;50.710;7.180;2022-10-31T07:57:18;14.00;99.90
13251;DHT22;6692;50.710;7.180;2022-10-31T07:59:18;14.00;99.90
13251;DHT22;6692;50.710;7.180;2022-10-31T08:01:19;14.10;99.90
13251;DHT22;6692;50.710;7.180;2022-10-31T08:03:20;14.20;99.90
13251;DHT22;6692;50.710;7.180;2022-10-31T08:05:20;14.20;99.90
13251;DHT22;6692;50.710;7.180;2022-10-31T08:07:22;14.20;99.90
13251;DHT22;6692;50.710;7.180;2022-10-31T08:09:23;14.20;99.90
13251;DHT22;6692;50.710;7.180;2022-10-31T08:11:24;14.20;99.90
13251;DHT22;6692;50.710;7.180;2022-10-31T08:13:24;14.20;99.90
13251;DHT22;6692;50.710;7.180;2022-10-31T08:15:25;14.20;99.90
13251;DHT22;6692;50.710;7.180;2022-10-31T08:17:26;14.20;99.90
13251;DHT22;6692;50.710;7.180;2022-10-31T08:19:27;14.20;99.90
13251;DHT22;6692;50.710;7.180;2022-10-31T08:21:28;14.30;99.90
13251;DHT22;6692;50.710;7.180;2022-10-31T08:23:28;14.40;99.90
13251;DHT22;6692;50.710;7.180;2022-10-31T08:25:30;14.40;99.90
13251;DHT22;6692;50.710;7.180;2022-10-31T08:27:30;14.50;99.90
13251;DHT22;6692;50.710;7.180;2022-10-31T08:29:31;14.50;99.90
13251;DHT22;6692;50.710;7.180;2022-10-31T08:31:32;14.60;99.90
13251;DHT22;6692;50.710;7.180;2022-10-31T08:33:32;14.70;99.90
13251;DHT22;6692;50.710;7.180;2022-10-31T08:35:33;14.70;99.90
13251;DHT22;6692;50.710;7.180;2022-10-31T08:37:34;14.80;99.90
13251;DHT22;6692;50.710;7.180;2022-10-31T08:39:36;14.90;99.90
13251;DHT22;6692;50.710;7.180;2022-10-31T08:41:36;14.90;99.90
13251;DHT22;6692;50.710;7.180;2022-10-31T08:43:37;15.00;99.90
13251;DHT22;6692;50.710;7.180;2022-10-31T08:45:38;15.00;99.90
13251;DHT22;6692;50.710;7.180;2022-10-31T08:47:38;15.10;99.90
13251;DHT22;6692;50.710;7.180;2022-10-31T08:49:39;15.10;99.90
13251;DHT22;6692;50.710;7.180;2022-10-31T08:51:40;15.20;99.90
13251;DHT22;6692;50.710;7.180;2022-10-31T08:53:40;15.30;99.90
13251;DHT22;6692;50.710;7.180;2022-10-31T08:55:41;15.30;99.90
13251;DHT22;6692;50.710;7.180;2022-10-31T08:57:42;15.40;99.90
13251;DHT22;6692;50.710;7.180;2022-10-31T08:59:42;15.50;99.90
13251;DHT22;6692;50.710;7.180;2022-10-31T09:01:44;15.60;99.90
13251;DHT22;6692;50.710;7.180;2022-10-31T09:03:44;15.80;99.90
13251;DHT22;6692;50.710;7.180;2022-10-31T09:05:45;15.80;99.90
13251;DHT22;6692;50.710;7.180;2022-10-31T09:07:46;15.80;99.90
13251;DHT22;6692;50.710;7.180;2022-10-31T09:09:46;15.90;99.90
13251;DHT22;6692;50.710;7.180;2022-10-31T09:11:47;16.00;99.90
13251;DHT22;6692;50.710;7.180;2022-10-31T09:13:48;15.90;99.90
13251;DHT22;6692;50.710;7.180;2022-10-31T09:15:48;16.00;99.90
13251;DHT22;6692;50.710;7.180;2022-10-31T09:17:49;16.00;99.90
13251;DHT22;6692;50.710;7.180;2022-10-31T09:19:49;16.10;99.90
13251;DHT22;6692;50.710;7.180;2022-10-31T09:21:52;16.10;99.90
13251;DHT22;6692;50.710;7.180;2022-10-31T09:23:52;16.20;99.90
13251;DHT22;6692;50.710;7.180;2022-10-31T09:25:52;16.20;99.90
13251;DHT22;6692;50.710;7.180;2022-10-31T09:27:55;16.20;99.90
13251;DHT22;6692;50.710;7.180;2022-10-31T09:29:55;16.20;99.90
13251;DHT22;6692;50.710;7.180;2022-10-31T09:31:56;16.20;99.90
13251;DHT22;6692;50.710;7.180;2022-10-31T09:33:57;16.10;99.90
13251;DHT22;6692;50.710;7.180;2022-10-31T09:35:59;16.10;99.90
13251;DHT22;6692;50.710;7.180;2022-10-31T09:38:00;16.10;99.90
13251;DHT22;6692;50.710;7.180;2022-10-31T09:40:00;16.10;99.90
13251;DHT22;6692;50.710;7.180;2022-10-31T09:42:06;16.10;99.90
13251;DHT22;6692;50.710;7.180;2022-10-31T09:44:22;16.10;99.90
13251;DHT22;6692;50.710;7.180;2022-10-31T09:46:53;16.10;99.90
13251;DHT22;6692;50.710;7.180;2022-10-31T09:51:15;16.10;99.90
13251;DHT22;6692;50.710;7.180;2022-10-31T09:53:30;16.10;99.90
13251;DHT22;6692;50.710;7.180;2022-10-31T09:55:41;16.00;99.90
13251;DHT22;6692;50.710;7.180;2022-10-31T09:57:42;16.00;99.90
13251;DHT22;6692;50.710;7.180;2022-10-31T09:59:43;16.00;99.90
13251;DHT22;6692;50.710;7.180;2022-10-31T10:01:48;15.90;99.90
13251;DHT22;6692;50.710;7.180;2022-10-31T10:03:47;15.90;99.90
13251;DHT22;6692;50.710;7.180;2022-10-31T10:05:53;15.90;99.90
13251;DHT22;6692;50.710;7.180;2022-10-31T10:08:03;15.80;99.90
13251;DHT22;6692;50.710;7.180;2022-10-31T10:10:05;15.80;99.90
13251;DHT22;6692;50.710;7.180;2022-10-31T10:12:09;15.80;99.90
13251;DHT22;6692;50.710;7.180;2022-10-31T10:18:57;15.80;99.90
13251;DHT22;6692;50.710;7.180;2022-10-31T10:20:59;15.80;99.90
13251;DHT22;6692;50.710;7.180;2022-10-31T10:23:10;15.80;99.90
13251;DHT22;6692;50.710;7.180;2022-10-31T10:25:14;15.90;99.90
13251;DHT22;6692;50.710;7.180;2022-10-31T10:27:50;16.10;99.90
13251;DHT22;6692;50.710;7.180;2022-10-31T10:30:14;16.10;99.90
13251;DHT22;6692;50.710;7.180;2022-10-31T10:32:17;16.20;99.90
13251;DHT22;6692;50.710;7.180;2022-10-31T10:34:22;16.40;99.90
13251;DHT22;6692;50.710;7.180;2022-10-31T10:36:27;16.50;99.90
13251;DHT22;6692;50.710;7.180;2022-10-31T10:38:33;16.70;99.90
13251;DHT22;6692;50.710;7.180;2022-10-31T10:40:30;16.70;99.90
13251;DHT22;6692;50.710;7.180;2022-10-31T10:42:31;16.90;99.90
13251;DHT22;6692;50.710;7.180;2022-10-31T10:44:38;17.00;99.90
13251;DHT22;6692;50.710;7.180;2022-10-31T10:46:48;17.20;99.90
13251;DHT22;6692;50.710;7.180;2022-10-31T10:49:05;17.40;99.90
13251;DHT22;6692;50.710;7.180;2022-10-31T10:51:03;17.60;99.90
13251;DHT22;6692;50.710;7.180;2022-10-31T10:53:12;17.70;99.90
13251;DHT22;6692;50.710;7.180;2022-10-31T10:55:15;17.90;99.90
13251;DHT22;6692;50.710;7.180;2022-10-31T10:59:23;18.00;99.90
13251;DHT22;6692;50.710;7.180;2022-10-31T11:01:23;17.90;99.90
13251;DHT22;6692;50.710;7.180;2022-10-31T11:03:24;17.90;99.90
13251;DHT22;6692;50.710;7.180;2022-10-31T11:05:41;17.90;99.90
13251;DHT22;6692;50.710;7.180;2022-10-31T11:07:40;17.90;99.90
13251;DHT22;6692;50.710;7.180;2022-10-31T11:09:41;18.00;99.90
13251;DHT22;6692;50.710;7.180;2022-10-31T11:11:42;18.00;99.90
13251;DHT22;6692;50.710;7.180;2022-10-31T11:13:44;18.10;99.90
13251;DHT22;6692;50.710;7.180;2022-10-31T11:15:51;18.20;99.90
13251;DHT22;6692;50.710;7.180;2022-10-31T11:17:51;18.10;99.90
13251;DHT22;6692;50.710;7.180;2022-10-31T11:19:59;18.20;99.90
13251;DHT22;6692;50.710;7.180;2022-10-31T11:21:51;18.10;99.90
13251;DHT22;6692;50.710;7.180;2022-10-31T11:25:59;18.10;99.90
13251;DHT22;6692;50.710;7.180;2022-10-31T11:28:01;18.10;99.90
13251;DHT22;6692;50.710;7.180;2022-10-31T11:30:04;18.10;99.90
13251;DHT22;6692;50.710;7.180;2022-10-31T11:32:04;18.10;99.90
13251;DHT22;6692;50.710;7.180;2022-10-31T11:34:06;18.20;99.90
13251;DHT22;6692;50.710;7.180;2022-10-31T11:36:21;18.20;99.90
13251;DHT22;6692;50.710;7.180;2022-10-31T11:38:23;18.40;99.90
13251;DHT22;6692;50.710;7.180;2022-10-31T11:40:24;18.40;99.90
13251;DHT22;6692;50.710;7.180;2022-10-31T11:42:24;18.50;99.90
13251;DHT22;6692;50.710;7.180;2022-10-31T11:44:25;18.60;99.90
13251;DHT22;6692;50.710;7.180;2022-10-31T11:46:32;18.70;99.90
13251;DHT22;6692;50.710;7.180;2022-10-31T11:48:29;18.80;99.90
13251;DHT22;6692;50.710;7.180;2022-10-31T11:50:34;18.90;99.90
13251;DHT22;6692;50.710;7.180;2022-10-31T11:52:34;19.00;99.90
13251;DHT22;6692;50.710;7.180;2022-10-31T11:54:42;19.00;99.90
13251;DHT22;6692;50.710;7.180;2022-10-31T11:56:41;19.00;99.90
13251;DHT22;6692;50.710;7.180;2022-10-31T11:58:42;19.10;99.90
13251;DHT22;6692;50.710;7.180;2022-10-31T12:00:47;19.10;99.90
13251;DHT22;6692;50.710;7.180;2022-10-31T12:02:43;19.20;99.90
13251;DHT22;6692;50.710;7.180;2022-10-31T12:04:44;19.20;99.90
13251;DHT22;6692;50.710;7.180;2022-10-31T12:06:45;19.20;99.90
13251;DHT22;6692;50.710;7.180;2022-10-31T12:08:47;19.20;99.90
13251;DHT22;6692;50.710;7.180;2022-10-31T12:10:57;19.20;99.90
13251;DHT22;6692;50.710;7.180;2022-10-31T12:15:31;19.20;99.90
13251;DHT22;6692;50.710;7.180;2022-10-31T12:17:51;19.20;99.90
13251;DHT22;6692;50.710;7.180;2022-10-31T12:22:25;19.30;99.90
13251;DHT22;6692;50.710;7.180;2022-10-31T12:26:53;19.30;99.90
13251;DHT22;6692;50.710;7.180;2022-10-31T12:29:09;19.30;99.90
13251;DHT22;6692;50.710;7.180;2022-10-31T12:31:24;19.40;99.90
13251;DHT22;6692;50.710;7.180;2022-10-31T12:35:48;19.40;99.90
13251;DHT22;6692;50.710;7.180;2022-10-31T12:37:53;19.40;99.90
13251;DHT22;6692;50.710;7.180;2022-10-31T12:40:05;19.40;99.90
13251;DHT22;6692;50.710;7.180;2022-10-31T12:42:08;19.40;99.90
13251;DHT22;6692;50.710;7.180;2022-10-31T12:44:22;19.30;99.90
13251;DHT22;6692;50.710;7.180;2022-10-31T12:46:41;19.30;99.90
13251;DHT22;6692;50.710;7.180;2022-10-31T12:50:50;19.30;99.90
13251;DHT22;6692;50.710;7.180;2022-10-31T12:52:51;19.30;99.90
13251;DHT22;6692;50.710;7.180;2022-10-31T12:54:57;19.30;99.90
13251;DHT22;6692;50.710;7.180;2022-10-31T12:57:05;19.20;99.90
13251;DHT22;6692;50.710;7.180;2022-10-31T12:59:14;19.20;99.90
13251;DHT22;6692;50.710;7.180;2022-10-31T13:01:13;19.20;99.90
13251;DHT22;6692;50.710;7.180;2022-10-31T13:03:19;19.10;99.90
13251;DHT22;6692;50.710;7.180;2022-10-31T13:05:25;19.20;99.90
13251;DHT22;6692;50.710;7.180;2022-10-31T13:07:27;19.20;99.90
13251;DHT22;6692;50.710;7.180;2022-10-31T13:09:31;19.10;99.90
13251;DHT22;6692;50.710;7.180;2022-10-31T13:11:34;19.20;99.90
13251;DHT22;6692;50.710;7.180;2022-10-31T13:13:35;19.30;99.90
13251;DHT22;6692;50.710;7.180;2022-10-31T13:15:35;19.30;99.90
13251;DHT22;6692;50.710;7.180;2022-10-31T13:17:38;19.40;99.90
13251;DHT22;6692;50.710;7.180;2022-10-31T13:19:38;19.40;99.90
13251;DHT22;6692;50.710;7.180;2022-10-31T13:21:41;19.50;99.90
13251;DHT22;6692;50.710;7.180;2022-10-31T13:23:39;19.60;99.90
13251;DHT22;6692;50.710;7.180;2022-10-31T13:25:42;19.80;99.90
13251;DHT22;6692;50.710;7.180;2022-10-31T13:27:58;20.10;99.90
13251;DHT22;6692;50.710;7.180;2022-10-31T13:30:05;20.30;99.90
13251;DHT22;6692;50.710;7.180;2022-10-31T13:32:05;20.50;99.90